createdAt,value
2019-01-05T00:01:52.416Z,1004.83
2019-01-05T00:04:09.861Z,1004.77
2019-01-05T00:05:16.907Z,1004.76
2019-01-05T00:06:24.084Z,1004.80
2019-01-05T00:07:30.874Z,1004.76
2019-01-05T00:08:37.813Z,1004.76
2019-01-05T00:09:44.783Z,1004.76
2019-01-05T00:10:51.906Z,1004.79
2019-01-05T00:11:58.932Z,1004.78
2019-01-05T00:13:05.951Z,1004.68
2019-01-05T00:14:12.826Z,1004.74
2019-01-05T00:15:19.997Z,1004.68
2019-01-05T00:16:27.139Z,1004.70
2019-01-05T00:17:34.100Z,1004.70
2019-01-05T00:18:40.916Z,1004.68
2019-01-05T00:19:52.253Z,1004.68
2019-01-05T00:21:00.655Z,1004.66
2019-01-05T00:23:14.784Z,1004.64
2019-01-05T00:24:21.369Z,1004.68
2019-01-05T00:25:28.423Z,1004.68
2019-01-05T00:26:35.497Z,1004.69
2019-01-05T00:27:42.259Z,1004.66
2019-01-05T00:28:49.216Z,1004.69
2019-01-05T00:29:55.912Z,1004.65
2019-01-05T00:31:02.232Z,1004.78
2019-01-05T00:32:19.500Z,1004.76
2019-01-05T00:33:26.388Z,1004.82
2019-01-05T00:34:33.620Z,1004.80
2019-01-05T00:35:40.359Z,1004.77
2019-01-05T00:36:47.527Z,1004.81
2019-01-05T00:37:54.191Z,1004.80
2019-01-05T00:39:00.873Z,1004.86
2019-01-05T00:40:08.055Z,1004.80
2019-01-05T00:41:14.996Z,1004.77
2019-01-05T00:42:22.382Z,1004.81
2019-01-05T00:43:29.164Z,1004.78
2019-01-05T00:44:35.763Z,1004.83
2019-01-05T00:46:54.680Z,1004.75
2019-01-05T00:48:01.098Z,1004.77
2019-01-05T00:49:08.097Z,1004.75
2019-01-05T00:50:14.976Z,1004.77
2019-01-05T00:51:22.024Z,1004.70
2019-01-05T00:52:28.610Z,1004.66
2019-01-05T00:53:35.303Z,1004.59
2019-01-05T00:55:54.024Z,1004.65
2019-01-05T00:58:07.029Z,1004.69
2019-01-05T00:59:14.045Z,1004.69
2019-01-05T01:00:21.113Z,1004.63
2019-01-05T01:01:29.058Z,1004.66
2019-01-05T01:03:41.992Z,1004.73
2019-01-05T01:05:54.702Z,1004.71
2019-01-05T01:07:01.477Z,1004.74
2019-01-05T01:08:14.976Z,1004.70
2019-01-05T01:09:30.568Z,1004.72
2019-01-05T01:10:37.840Z,1004.72
2019-01-05T01:11:44.589Z,1004.73
2019-01-05T01:12:51.148Z,1004.76
2019-01-05T01:13:58.216Z,1004.73
2019-01-05T01:15:05.048Z,1004.81
2019-01-05T01:16:12.287Z,1004.85
2019-01-05T01:17:20.459Z,1004.87
2019-01-05T01:19:38.205Z,1004.82
2019-01-05T01:20:45.084Z,1004.85
2019-01-05T01:22:58.068Z,1004.84
2019-01-05T01:24:04.756Z,1004.85
2019-01-05T01:25:11.924Z,1004.88
2019-01-05T01:26:19.020Z,1004.88
2019-01-05T01:27:26.172Z,1004.83
2019-01-05T01:28:32.614Z,1004.83
2019-01-05T01:29:39.492Z,1004.80
2019-01-05T01:30:49.120Z,1004.79
2019-01-05T01:31:56.416Z,1004.78
2019-01-05T01:33:03.197Z,1004.69
2019-01-05T01:34:09.901Z,1004.75
2019-01-05T01:35:17.009Z,1004.66
2019-01-05T01:36:24.101Z,1004.64
2019-01-05T01:37:31.027Z,1004.64
2019-01-05T01:38:37.707Z,1004.78
2019-01-05T01:39:44.696Z,1004.60
2019-01-05T01:40:51.231Z,1004.63
2019-01-05T01:41:58.516Z,1004.61
2019-01-05T01:44:17.149Z,1004.59
2019-01-05T01:45:24.219Z,1004.63
2019-01-05T01:46:31.119Z,1004.63
2019-01-05T01:47:38.008Z,1004.63
2019-01-05T01:48:44.839Z,1004.57
2019-01-05T01:49:51.799Z,1004.55
2019-01-05T01:50:58.677Z,1004.56
2019-01-05T01:52:06.380Z,1004.62
2019-01-05T01:53:13.024Z,1004.52
2019-01-05T01:54:19.901Z,1004.57
2019-01-05T01:55:26.860Z,1004.54
2019-01-05T01:56:34.435Z,1004.60
2019-01-05T01:57:40.694Z,1004.51
2019-01-05T01:58:50.205Z,1004.56
2019-01-05T01:59:56.885Z,1004.57
2019-01-05T02:01:07.536Z,1004.53
2019-01-05T02:02:18.527Z,1004.49
2019-01-05T02:03:25.283Z,1004.49
2019-01-05T02:04:31.932Z,1004.44
2019-01-05T02:05:39.006Z,1004.48
2019-01-05T02:06:45.915Z,1004.46
2019-01-05T02:07:53.963Z,1004.40
2019-01-05T02:09:00.512Z,1004.51
2019-01-05T02:10:07.697Z,1004.47
2019-01-05T02:11:14.068Z,1004.48
2019-01-05T02:13:29.459Z,1004.46
2019-01-05T02:14:35.992Z,1004.50
2019-01-05T02:15:42.656Z,1004.51
2019-01-05T02:16:49.824Z,1004.58
2019-01-05T02:17:56.107Z,1004.56
2019-01-05T02:20:20.132Z,1004.57
2019-01-05T02:21:27.046Z,1004.56
2019-01-05T02:22:34.008Z,1004.50
2019-01-05T02:24:54.289Z,1004.48
2019-01-05T02:26:16.195Z,1004.50
2019-01-05T02:27:23.292Z,1004.51
2019-01-05T02:28:30.416Z,1004.53
2019-01-05T02:29:37.733Z,1004.50
2019-01-05T02:30:44.406Z,1004.39
2019-01-05T02:31:51.497Z,1004.44
2019-01-05T02:32:58.566Z,1004.35
2019-01-05T02:34:17.448Z,1004.33
2019-01-05T02:35:24.557Z,1004.34
2019-01-05T02:37:59.316Z,1004.38
2019-01-05T02:39:19.584Z,1004.35
2019-01-05T02:40:26.160Z,1004.37
2019-01-05T02:41:52.681Z,1004.29
2019-01-05T02:42:59.520Z,1004.36
2019-01-05T02:44:24.619Z,1004.33
2019-01-05T02:45:31.293Z,1004.32
2019-01-05T02:46:38.362Z,1004.29
2019-01-05T02:47:45.340Z,1004.27
2019-01-05T02:48:52.506Z,1004.22
2019-01-05T02:51:11.052Z,1004.21
2019-01-05T02:52:18.016Z,1004.18
2019-01-05T02:53:25.117Z,1004.18
2019-01-05T02:54:44.247Z,1004.20
2019-01-05T02:57:41.285Z,1004.17
2019-01-05T02:59:02.308Z,1004.09
2019-01-05T03:00:09.163Z,1004.12
2019-01-05T03:01:16.149Z,1004.18
2019-01-05T03:03:03.377Z,1004.16
2019-01-05T03:04:10.826Z,1004.06
2019-01-05T03:05:17.701Z,1004.11
2019-01-05T03:06:24.970Z,1004.09
2019-01-05T03:07:31.751Z,1004.07
2019-01-05T03:08:47.937Z,1004.10
2019-01-05T03:10:28.160Z,1004.05
2019-01-05T03:11:35.344Z,1004.04
2019-01-05T03:12:49.083Z,1003.96
2019-01-05T03:13:56.568Z,1004.03
2019-01-05T03:15:03.029Z,1003.98
2019-01-05T03:16:24.104Z,1003.93
2019-01-05T03:17:30.997Z,1004.02
2019-01-05T03:18:38.176Z,1003.95
2019-01-05T03:19:44.641Z,1003.92
2019-01-05T03:22:07.550Z,1003.95
2019-01-05T03:23:26.112Z,1003.87
2019-01-05T03:24:32.884Z,1003.84
2019-01-05T03:25:39.595Z,1003.79
2019-01-05T03:26:46.395Z,1003.87
2019-01-05T03:27:53.257Z,1003.82
2019-01-05T03:29:00.465Z,1003.80
2019-01-05T03:30:21.749Z,1003.78
2019-01-05T03:31:37.541Z,1003.73
2019-01-05T03:32:44.097Z,1003.75
2019-01-05T03:36:02.046Z,1003.73
2019-01-05T03:37:08.686Z,1003.66
2019-01-05T03:38:15.660Z,1003.67
2019-01-05T03:39:22.753Z,1003.60
2019-01-05T03:40:29.688Z,1003.59
2019-01-05T03:41:43.501Z,1003.55
2019-01-05T03:42:58.481Z,1003.52
2019-01-05T03:44:29.432Z,1003.62
2019-01-05T03:47:07.452Z,1003.61
2019-01-05T03:48:22.996Z,1003.55
2019-01-05T03:49:29.637Z,1003.57
2019-01-05T03:50:53.201Z,1003.49
2019-01-05T03:52:14.112Z,1003.54
2019-01-05T03:53:21.172Z,1003.47
2019-01-05T03:54:40.511Z,1003.45
2019-01-05T03:55:47.005Z,1003.47
2019-01-05T03:56:54.197Z,1003.47
2019-01-05T03:58:00.945Z,1003.44
2019-01-05T03:59:22.463Z,1003.41
2019-01-05T04:00:35.598Z,1003.33
2019-01-05T04:01:42.352Z,1003.30
2019-01-05T04:02:48.996Z,1003.25
2019-01-05T04:03:56.257Z,1003.23
2019-01-05T04:05:20.984Z,1003.18
2019-01-05T04:06:37.512Z,1003.12
2019-01-05T04:07:44.223Z,1003.23
2019-01-05T04:08:51.604Z,1003.20
2019-01-05T04:10:11.366Z,1003.18
2019-01-05T04:11:37.398Z,1003.15
2019-01-05T04:12:44.251Z,1003.13
2019-01-05T04:13:51.755Z,1003.15
2019-01-05T04:16:43.112Z,1003.17
2019-01-05T04:17:50.024Z,1003.20
2019-01-05T04:18:57.092Z,1003.16
2019-01-05T04:20:03.629Z,1003.00
2019-01-05T04:21:10.649Z,1002.95
2019-01-05T04:22:17.468Z,1003.10
2019-01-05T04:23:24.693Z,1002.96
2019-01-05T04:25:44.270Z,1002.93
2019-01-05T04:26:50.902Z,1002.94
2019-01-05T04:27:57.820Z,1002.92
2019-01-05T04:29:05.451Z,1002.94
2019-01-05T04:30:24.308Z,1003.02
2019-01-05T04:31:31.180Z,1002.98
2019-01-05T04:35:53.453Z,1003.13
2019-01-05T04:37:00.284Z,1003.20
2019-01-05T04:38:07.044Z,1003.20
2019-01-05T04:39:13.986Z,1003.26
2019-01-05T04:43:40.047Z,1003.17
2019-01-05T04:44:46.548Z,1003.14
2019-01-05T04:47:10.700Z,1003.13
2019-01-05T04:48:17.258Z,1002.98
2019-01-05T04:49:25.060Z,1002.94
2019-01-05T04:51:44.644Z,1002.92
2019-01-05T04:52:51.189Z,1002.86
2019-01-05T04:53:58.459Z,1002.81
2019-01-05T04:56:35.252Z,1002.84
2019-01-05T04:57:42.091Z,1002.79
2019-01-05T04:58:48.979Z,1002.76
2019-01-05T04:59:55.923Z,1002.78
2019-01-05T05:01:02.655Z,1002.82
2019-01-05T05:02:09.580Z,1002.77
2019-01-05T05:03:16.184Z,1002.76
2019-01-05T05:04:25.029Z,1002.70
2019-01-05T05:05:52.361Z,1002.69
2019-01-05T05:06:59.281Z,1002.65
2019-01-05T05:08:06.023Z,1002.66
2019-01-05T05:09:23.550Z,1002.67
2019-01-05T05:10:30.210Z,1002.57
2019-01-05T05:11:37.277Z,1002.54
2019-01-05T05:12:44.173Z,1002.55
2019-01-05T05:13:51.421Z,1002.55
2019-01-05T05:14:57.704Z,1002.49
2019-01-05T05:16:23.595Z,1002.46
2019-01-05T05:17:30.367Z,1002.49
2019-01-05T05:18:37.876Z,1002.49
2019-01-05T05:19:44.701Z,1002.43
2019-01-05T05:20:51.389Z,1002.51
2019-01-05T05:22:04.468Z,1002.49
2019-01-05T05:23:11.268Z,1002.52
2019-01-05T05:24:18.504Z,1002.52
2019-01-05T05:25:25.280Z,1002.60
2019-01-05T05:26:39.515Z,1002.59
2019-01-05T05:27:46.192Z,1002.61
2019-01-05T05:28:52.636Z,1002.68
2019-01-05T05:30:00.334Z,1002.62
2019-01-05T05:31:07.094Z,1002.64
2019-01-05T05:32:13.750Z,1002.67
2019-01-05T05:33:34.626Z,1002.61
2019-01-05T05:34:42.062Z,1002.65
2019-01-05T05:35:48.698Z,1002.72
2019-01-05T05:36:55.450Z,1002.67
2019-01-05T05:38:02.388Z,1002.63
2019-01-05T05:39:24.504Z,1002.71
2019-01-05T05:41:41.062Z,1002.67
2019-01-05T05:42:47.607Z,1002.69
2019-01-05T05:43:54.496Z,1002.57
2019-01-05T05:45:45.526Z,1002.56
2019-01-05T05:46:52.661Z,1002.52
2019-01-05T05:47:59.549Z,1002.47
2019-01-05T05:49:23.826Z,1002.41
2019-01-05T05:50:30.804Z,1002.38
2019-01-05T05:51:38.251Z,1002.31
2019-01-05T05:53:55.633Z,1002.29
2019-01-05T05:55:02.452Z,1002.38
2019-01-05T05:57:22.844Z,1002.42
2019-01-05T05:58:29.444Z,1002.38
2019-01-05T05:59:42.219Z,1002.35
2019-01-05T06:00:48.979Z,1002.22
2019-01-05T06:02:05.657Z,1002.25
2019-01-05T06:03:12.214Z,1002.22
2019-01-05T06:04:18.975Z,1002.24
2019-01-05T06:05:25.859Z,1002.17
2019-01-05T06:06:33.131Z,1002.19
2019-01-05T06:08:54.436Z,1002.22
2019-01-05T06:11:13.500Z,1002.30
2019-01-05T06:12:32.445Z,1002.22
2019-01-05T06:17:01.014Z,1002.27
2019-01-05T06:18:08.077Z,1002.31
2019-01-05T06:19:15.249Z,1002.27
2019-01-05T06:20:22.555Z,1002.37
2019-01-05T06:21:29.320Z,1002.39
2019-01-05T06:22:45.529Z,1002.42
2019-01-05T06:23:52.448Z,1002.38
2019-01-05T06:25:22.878Z,1002.31
2019-01-05T06:26:29.540Z,1002.40
2019-01-05T06:27:36.414Z,1002.36
2019-01-05T06:28:43.377Z,1002.30
2019-01-05T06:30:08.867Z,1002.37
2019-01-05T06:31:15.869Z,1002.39
2019-01-05T06:32:40.689Z,1002.45
2019-01-05T06:33:47.536Z,1002.45
2019-01-05T06:34:54.203Z,1002.45
2019-01-05T06:36:01.478Z,1002.49
2019-01-05T06:37:08.013Z,1002.36
2019-01-05T06:38:14.949Z,1002.42
2019-01-05T06:39:21.871Z,1002.49
2019-01-05T06:40:28.539Z,1002.42
2019-01-05T06:41:45.787Z,1002.42
2019-01-05T06:43:08.592Z,1002.42
2019-01-05T06:44:15.880Z,1002.34
2019-01-05T06:45:22.848Z,1002.39
2019-01-05T06:46:50.876Z,1002.37
2019-01-05T06:47:57.755Z,1002.34
2019-01-05T06:50:20.499Z,1002.28
2019-01-05T06:51:27.664Z,1002.36
2019-01-05T06:52:34.475Z,1002.35
2019-01-05T06:53:41.404Z,1002.32
2019-01-05T06:56:05.517Z,1002.32
2019-01-05T06:57:12.501Z,1002.30
2019-01-05T06:58:19.735Z,1002.29
2019-01-05T06:59:26.547Z,1002.27
2019-01-05T07:00:33.455Z,1002.22
2019-01-05T07:01:55.568Z,1002.25
2019-01-05T07:03:02.537Z,1002.23
2019-01-05T07:04:09.337Z,1002.28
2019-01-05T07:05:16.203Z,1002.28
2019-01-05T07:06:33.292Z,1002.21
2019-01-05T07:08:57.847Z,1002.33
2019-01-05T07:11:15.810Z,1002.26
2019-01-05T07:12:22.735Z,1002.29
2019-01-05T07:13:25.476Z,1002.27
2019-01-05T07:14:31.959Z,1002.26
2019-01-05T07:15:39.120Z,1002.31
2019-01-05T07:16:46.123Z,1002.28
2019-01-05T07:17:52.968Z,1002.33
2019-01-05T07:20:12.741Z,1002.38
2019-01-05T07:21:19.703Z,1002.35
2019-01-05T07:22:26.989Z,1002.36
2019-01-05T07:23:33.640Z,1002.29
2019-01-05T07:24:48.404Z,1002.23
2019-01-05T07:25:55.261Z,1002.15
2019-01-05T07:27:02.424Z,1002.15
2019-01-05T07:28:19.008Z,1002.15
2019-01-05T07:29:26.008Z,1002.13
2019-01-05T07:30:48.091Z,1002.22
2019-01-05T07:31:55.379Z,1002.14
2019-01-05T07:33:02.057Z,1002.17
2019-01-05T07:34:09.120Z,1002.10
2019-01-05T07:35:15.711Z,1002.10
2019-01-05T07:36:22.553Z,1002.13
2019-01-05T07:37:29.385Z,1002.17
2019-01-05T07:38:36.117Z,1002.10
2019-01-05T07:39:57.124Z,1002.10
2019-01-05T07:41:04.065Z,1002.03
2019-01-05T07:42:11.349Z,1002.01
2019-01-05T07:43:17.984Z,1002.06
2019-01-05T07:44:24.865Z,1002.09
2019-01-05T07:45:44.969Z,1002.10
2019-01-05T07:48:10.668Z,1002.08
2019-01-05T07:49:17.327Z,1002.03
2019-01-05T07:50:24.292Z,1002.05
2019-01-05T07:51:31.370Z,1002.13
2019-01-05T07:53:53.304Z,1002.09
2019-01-05T07:55:00.386Z,1002.10
2019-01-05T07:56:07.148Z,1002.06
2019-01-05T07:58:23.112Z,1002.08
2019-01-05T07:59:29.990Z,1002.15
2019-01-05T08:00:48.952Z,1002.10
2019-01-05T08:01:56.130Z,1002.12
2019-01-05T08:03:02.868Z,1002.04
2019-01-05T08:05:29.752Z,1002.06
2019-01-05T08:06:37.460Z,1002.00
2019-01-05T08:08:57.012Z,1002.10
2019-01-05T08:10:03.848Z,1002.08
2019-01-05T08:11:21.788Z,1002.01
2019-01-05T08:13:43.480Z,1002.07
2019-01-05T08:14:50.072Z,1002.04
2019-01-05T08:18:09.757Z,1002.07
2019-01-05T08:20:31.419Z,1002.04
2019-01-05T08:21:37.119Z,1002.04
2019-01-05T08:22:43.859Z,1002.03
2019-01-05T08:25:05.569Z,1002.01
2019-01-05T08:26:12.360Z,1002.04
2019-01-05T08:27:19.513Z,1002.06
2019-01-05T08:28:26.595Z,1001.95
2019-01-05T08:29:40.741Z,1001.96
2019-01-05T08:30:47.673Z,1002.04
2019-01-05T08:31:54.793Z,1001.97
2019-01-05T08:33:01.126Z,1001.94
2019-01-05T08:34:08.709Z,1001.99
2019-01-05T08:35:15.383Z,1002.01
2019-01-05T08:36:22.557Z,1002.00
2019-01-05T08:37:29.409Z,1002.01
2019-01-05T08:38:36.674Z,1001.97
2019-01-05T08:39:43.350Z,1001.90
2019-01-05T08:40:50.416Z,1001.95
2019-01-05T08:41:57.525Z,1001.97
2019-01-05T08:43:04.157Z,1001.95
2019-01-05T08:45:20.447Z,1001.95
2019-01-05T08:47:05.649Z,1001.94
2019-01-05T08:48:12.398Z,1001.92
2019-01-05T08:50:32.364Z,1002.03
2019-01-05T08:51:46.498Z,1001.97
2019-01-05T08:53:16.226Z,1001.99
2019-01-05T08:54:29.318Z,1002.01
2019-01-05T08:55:48.277Z,1002.08
2019-01-05T08:56:55.251Z,1001.99
2019-01-05T08:58:01.914Z,1001.93
2019-01-05T08:59:08.785Z,1001.97
2019-01-05T09:00:15.959Z,1001.91
2019-01-05T09:01:23.024Z,1001.99
2019-01-05T09:02:56.192Z,1002.01
2019-01-05T09:04:23.835Z,1002.00
2019-01-05T09:05:31.322Z,1001.96
2019-01-05T09:06:38.426Z,1001.92
2019-01-05T09:07:45.400Z,1002.03
2019-01-05T09:08:52.250Z,1002.03
2019-01-05T09:09:58.814Z,1002.03
2019-01-05T09:11:05.994Z,1002.07
2019-01-05T09:12:12.884Z,1002.03
2019-01-05T09:13:19.837Z,1002.01
2019-01-05T09:14:26.912Z,1002.05
2019-01-05T09:17:05.711Z,1001.99
2019-01-05T09:18:12.092Z,1002.00
2019-01-05T09:19:31.027Z,1001.95
2019-01-05T09:20:38.252Z,1001.99
2019-01-05T09:21:44.628Z,1002.00
2019-01-05T09:24:00.448Z,1001.95
2019-01-05T09:26:22.582Z,1002.03
2019-01-05T09:27:29.158Z,1002.01
2019-01-05T09:29:47.784Z,1002.06
2019-01-05T09:32:05.317Z,1001.98
2019-01-05T09:33:12.372Z,1002.00
2019-01-05T09:34:19.241Z,1002.04
2019-01-05T09:35:26.464Z,1001.99
2019-01-05T09:36:33.545Z,1002.02
2019-01-05T09:37:40.268Z,1002.07
2019-01-05T09:38:46.937Z,1001.99
2019-01-05T09:39:54.161Z,1002.08
2019-01-05T09:41:01.364Z,1002.06
2019-01-05T09:42:07.969Z,1002.09
2019-01-05T09:43:14.580Z,1002.09
2019-01-05T09:44:21.540Z,1002.10
2019-01-05T09:45:28.330Z,1002.18
2019-01-05T09:46:35.662Z,1002.14
2019-01-05T09:47:42.431Z,1002.15
2019-01-05T09:48:49.661Z,1002.14
2019-01-05T09:52:13.820Z,1002.21
2019-01-05T09:53:43.767Z,1002.11
2019-01-05T09:54:58.684Z,1002.16
2019-01-05T09:57:16.832Z,1002.14
2019-01-05T09:58:24.693Z,1002.11
2019-01-05T09:59:30.574Z,1002.15
2019-01-05T10:02:09.588Z,1002.16
2019-01-05T10:03:16.283Z,1002.08
2019-01-05T10:04:23.442Z,1002.11
2019-01-05T10:05:30.216Z,1002.09
2019-01-05T10:06:37.769Z,1002.04
2019-01-05T10:07:44.253Z,1002.05
2019-01-05T10:08:51.436Z,1002.03
2019-01-05T10:09:58.315Z,1002.04
2019-01-05T10:12:15.583Z,1002.02
2019-01-05T10:13:38.869Z,1002.08
2019-01-05T10:14:45.626Z,1001.99
2019-01-05T10:15:52.588Z,1002.02
2019-01-05T10:16:59.556Z,1002.04
2019-01-05T10:18:17.484Z,1001.96
2019-01-05T10:19:24.588Z,1001.89
2019-01-05T10:20:31.319Z,1001.97
2019-01-05T10:21:45.355Z,1001.95
2019-01-05T10:22:52.024Z,1001.96
2019-01-05T10:23:58.712Z,1001.92
2019-01-05T10:25:05.558Z,1001.91
2019-01-05T10:26:12.523Z,1001.88
2019-01-05T10:27:19.702Z,1001.91
2019-01-05T10:28:26.553Z,1001.89
2019-01-05T10:29:33.612Z,1001.87
2019-01-05T10:30:40.357Z,1001.79
2019-01-05T10:31:54.955Z,1001.81
2019-01-05T10:33:11.754Z,1001.91
2019-01-05T10:34:26.432Z,1001.86
2019-01-05T10:35:33.374Z,1001.90
2019-01-05T10:36:50.420Z,1001.83
2019-01-05T10:37:56.837Z,1001.83
2019-01-05T10:41:14.457Z,1001.85
2019-01-05T10:43:36.297Z,1001.93
2019-01-05T10:44:43.076Z,1001.76
2019-01-05T10:45:49.925Z,1001.82
2019-01-05T10:47:43.683Z,1001.95
2019-01-05T10:50:01.532Z,1001.85
2019-01-05T10:51:08.520Z,1001.81
2019-01-05T10:52:25.148Z,1001.91
2019-01-05T10:53:31.883Z,1001.83
2019-01-05T10:55:53.080Z,1001.87
2019-01-05T10:56:59.820Z,1001.85
2019-01-05T10:58:07.397Z,1001.81
2019-01-05T10:59:26.282Z,1001.82
2019-01-05T11:00:59.144Z,1001.82
2019-01-05T11:02:05.811Z,1001.89
2019-01-05T11:03:14.108Z,1001.92
2019-01-05T11:04:20.267Z,1001.92
2019-01-05T11:07:15.357Z,1001.81
2019-01-05T11:08:22.336Z,1001.87
2019-01-05T11:09:29.515Z,1001.86
2019-01-05T11:10:36.569Z,1001.87
2019-01-05T11:14:58.017Z,1001.86
2019-01-05T11:17:19.506Z,1001.72
2019-01-05T11:20:08.857Z,1001.81
2019-01-05T11:21:16.169Z,1001.75
2019-01-05T11:23:38.206Z,1001.71
2019-01-05T11:24:45.227Z,1001.76
2019-01-05T11:25:52.346Z,1001.78
2019-01-05T11:27:10.840Z,1001.75
2019-01-05T11:28:18.002Z,1001.80
2019-01-05T11:29:24.962Z,1001.74
2019-01-05T11:30:38.148Z,1001.67
2019-01-05T11:31:44.698Z,1001.76
2019-01-05T11:32:51.417Z,1001.73
2019-01-05T11:33:59.147Z,1001.74
2019-01-05T11:36:18.326Z,1001.71
2019-01-05T11:37:25.272Z,1001.78
2019-01-05T11:39:44.219Z,1001.79
2019-01-05T11:42:06.107Z,1001.76
2019-01-05T11:43:19.910Z,1001.85
2019-01-05T11:44:26.767Z,1001.84
2019-01-05T11:45:33.546Z,1001.83
2019-01-05T11:46:40.300Z,1001.81
2019-01-05T11:48:05.481Z,1001.79
2019-01-05T11:49:25.552Z,1001.73
2019-01-05T11:50:32.448Z,1001.74
2019-01-05T11:51:40.436Z,1001.81
2019-01-05T11:52:46.364Z,1001.74
2019-01-05T11:53:53.125Z,1001.71
2019-01-05T11:54:59.899Z,1001.75
2019-01-05T11:57:22.656Z,1001.72
2019-01-05T11:58:29.442Z,1001.63
2019-01-05T11:59:36.491Z,1001.61
2019-01-05T12:00:43.660Z,1001.59
2019-01-05T12:01:50.639Z,1001.61
2019-01-05T12:02:57.285Z,1001.69
2019-01-05T12:04:04.681Z,1001.68
2019-01-05T12:05:11.132Z,1001.60
2019-01-05T12:06:35.039Z,1001.57
2019-01-05T12:07:40.914Z,1001.60
2019-01-05T12:08:47.253Z,1001.49
2019-01-05T12:09:55.091Z,1001.53
2019-01-05T12:11:01.919Z,1001.48
2019-01-05T12:12:08.764Z,1001.55
2019-01-05T12:13:15.688Z,1001.50
2019-01-05T12:14:22.578Z,1001.49
2019-01-05T12:15:38.902Z,1001.44
2019-01-05T12:16:53.907Z,1001.52
2019-01-05T12:18:00.455Z,1001.43
2019-01-05T12:19:07.117Z,1001.45
2019-01-05T12:22:32.645Z,1001.48
2019-01-05T12:24:50.881Z,1001.51
2019-01-05T12:25:57.940Z,1001.39
2019-01-05T12:27:14.663Z,1001.50
2019-01-05T12:28:21.596Z,1001.56
2019-01-05T12:29:28.900Z,1001.48
2019-01-05T12:31:47.760Z,1001.58
2019-01-05T12:34:43.686Z,1001.50
2019-01-05T12:35:50.523Z,1001.46
2019-01-05T12:36:57.296Z,1001.47
2019-01-05T12:38:05.066Z,1001.53
2019-01-05T12:39:13.251Z,1001.44
2019-01-05T12:40:18.219Z,1001.48
2019-01-05T12:41:34.831Z,1001.41
2019-01-05T12:42:41.478Z,1001.43
2019-01-05T12:43:49.160Z,1001.47
2019-01-05T12:44:55.720Z,1001.51
2019-01-05T12:46:02.885Z,1001.52
2019-01-05T12:47:09.676Z,1001.53
2019-01-05T12:48:23.182Z,1001.50
2019-01-05T12:49:30.523Z,1001.53
2019-01-05T12:50:37.421Z,1001.50
2019-01-05T12:51:44.420Z,1001.51
2019-01-05T12:53:01.311Z,1001.49
2019-01-05T12:54:09.928Z,1001.50
2019-01-05T12:55:25.689Z,1001.51
2019-01-05T12:57:49.588Z,1001.50
2019-01-05T12:58:56.436Z,1001.56
2019-01-05T13:00:03.103Z,1001.47
2019-01-05T13:01:10.470Z,1001.50
2019-01-05T13:02:17.433Z,1001.45
2019-01-05T13:05:10.500Z,1001.44
2019-01-05T13:06:17.152Z,1001.54
2019-01-05T13:07:24.877Z,1001.59
2019-01-05T13:08:31.302Z,1001.58
2019-01-05T13:09:37.996Z,1001.61
2019-01-05T13:11:57.329Z,1001.62
2019-01-05T13:13:09.109Z,1001.60
2019-01-05T13:14:16.179Z,1001.63
2019-01-05T13:15:32.788Z,1001.59
2019-01-05T13:16:54.299Z,1001.69
2019-01-05T13:17:57.289Z,1001.56
2019-01-05T13:20:46.124Z,1001.55
2019-01-05T13:22:00.260Z,1001.68
2019-01-05T13:23:07.490Z,1001.65
2019-01-05T13:24:13.896Z,1001.69
2019-01-05T13:25:21.193Z,1001.64
2019-01-05T13:28:00.835Z,1001.74
2019-01-05T13:29:13.920Z,1001.66
2019-01-05T13:30:20.586Z,1001.68
2019-01-05T13:31:27.761Z,1001.77
2019-01-05T13:32:44.588Z,1001.69
2019-01-05T13:33:51.332Z,1001.74
2019-01-05T13:36:17.565Z,1001.75
2019-01-05T13:40:45.868Z,1001.77
2019-01-05T13:41:52.776Z,1001.81
2019-01-05T13:43:09.032Z,1001.88
2019-01-05T13:44:15.768Z,1001.87
2019-01-05T13:45:24.700Z,1001.88
2019-01-05T13:46:29.608Z,1001.87
2019-01-05T13:47:36.370Z,1001.91
2019-01-05T13:48:42.956Z,1001.96
2019-01-05T13:49:50.652Z,1001.88
2019-01-05T13:50:57.072Z,1001.91
2019-01-05T13:52:04.054Z,1001.96
2019-01-05T13:53:10.861Z,1001.96
2019-01-05T13:54:19.092Z,1001.94
2019-01-05T13:55:26.401Z,1001.96
2019-01-05T13:56:33.224Z,1001.94
2019-01-05T13:57:39.816Z,1001.99
2019-01-05T13:58:46.488Z,1001.96
2019-01-05T13:59:53.489Z,1001.97
2019-01-05T14:00:59.943Z,1001.91
2019-01-05T14:02:07.489Z,1001.92
2019-01-05T14:03:14.159Z,1001.95
2019-01-05T14:04:21.232Z,1001.88
2019-01-05T14:05:28.196Z,1001.93
2019-01-05T14:06:34.422Z,1001.98
2019-01-05T14:07:41.813Z,1001.94
2019-01-05T14:08:48.404Z,1001.91
2019-01-05T14:09:55.220Z,1001.90
2019-01-05T14:11:03.900Z,1001.90
2019-01-05T14:12:08.484Z,1001.97
2019-01-05T14:13:15.956Z,1001.89
2019-01-05T14:14:23.160Z,1001.93
2019-01-05T14:15:29.700Z,1001.86
2019-01-05T14:16:36.763Z,1001.89
2019-01-05T14:17:43.833Z,1001.96
2019-01-05T14:18:51.235Z,1001.94
2019-01-05T14:20:02.757Z,1001.96
2019-01-05T14:21:09.595Z,1002.01
2019-01-05T14:22:16.654Z,1001.99
2019-01-05T14:23:24.117Z,1002.01
2019-01-05T14:24:30.580Z,1002.00
2019-01-05T14:25:37.209Z,1001.99
2019-01-05T14:26:43.892Z,1001.97
2019-01-05T14:27:51.166Z,1002.03
2019-01-05T14:28:58.362Z,1002.13
2019-01-05T14:30:05.104Z,1002.01
2019-01-05T14:31:11.891Z,1002.03
2019-01-05T14:32:19.072Z,1002.06
2019-01-05T14:33:26.131Z,1002.11
2019-01-05T14:34:32.987Z,1002.08
2019-01-05T14:35:40.185Z,1002.06
2019-01-05T14:36:47.040Z,1002.07
2019-01-05T14:37:54.306Z,1002.06
2019-01-05T14:39:08.469Z,1002.09
2019-01-05T14:40:15.008Z,1002.14
2019-01-05T14:41:22.192Z,1002.08
2019-01-05T14:42:29.107Z,1002.20
2019-01-05T14:43:36.439Z,1002.14
2019-01-05T14:44:43.003Z,1002.21
2019-01-05T14:45:49.863Z,1002.16
2019-01-05T14:46:56.577Z,1002.24
2019-01-05T14:48:03.389Z,1002.15
2019-01-05T14:49:10.725Z,1002.16
2019-01-05T14:50:19.305Z,1002.19
2019-01-05T14:51:26.037Z,1002.23
2019-01-05T14:53:41.514Z,1002.22
2019-01-05T14:54:48.505Z,1002.25
2019-01-05T14:55:55.164Z,1002.24
2019-01-05T14:57:02.284Z,1002.28
2019-01-05T14:58:09.597Z,1002.25
2019-01-05T14:59:19.181Z,1002.28
2019-01-05T15:00:26.841Z,1002.34
2019-01-05T15:01:33.061Z,1002.29
2019-01-05T15:02:40.035Z,1002.24
2019-01-05T15:03:46.795Z,1002.29
2019-01-05T15:04:54.208Z,1002.21
2019-01-05T15:06:00.840Z,1002.29
2019-01-05T15:08:18.165Z,1002.39
2019-01-05T15:09:25.333Z,1002.30
2019-01-05T15:10:32.025Z,1002.35
2019-01-05T15:11:39.100Z,1002.29
2019-01-05T15:12:45.741Z,1002.38
2019-01-05T15:13:52.915Z,1002.38
2019-01-05T15:15:00.234Z,1002.44
2019-01-05T15:16:06.745Z,1002.40
2019-01-05T15:17:13.420Z,1002.47
2019-01-05T15:18:20.444Z,1002.55
2019-01-05T15:19:27.675Z,1002.52
2019-01-05T15:20:34.712Z,1002.52
2019-01-05T15:21:41.407Z,1002.51
2019-01-05T15:22:52.968Z,1002.52
2019-01-05T15:23:59.932Z,1002.54
2019-01-05T15:25:07.440Z,1002.50
2019-01-05T15:26:17.121Z,1002.56
2019-01-05T15:27:24.343Z,1002.57
2019-01-05T15:28:42.074Z,1002.56
2019-01-05T15:29:54.277Z,1002.48
2019-01-05T15:31:00.696Z,1002.59
2019-01-05T15:32:07.678Z,1002.59
2019-01-05T15:33:14.504Z,1002.59
2019-01-05T15:34:21.577Z,1002.65
2019-01-05T15:35:28.710Z,1002.58
2019-01-05T15:36:35.551Z,1002.60
2019-01-05T15:37:42.113Z,1002.66
2019-01-05T15:38:49.108Z,1002.57
2019-01-05T15:39:56.881Z,1002.64
2019-01-05T15:41:03.249Z,1002.60
2019-01-05T15:42:10.396Z,1002.66
2019-01-05T15:43:17.467Z,1002.60
2019-01-05T15:44:24.640Z,1002.61
2019-01-05T15:45:31.844Z,1002.64
2019-01-05T15:46:42.491Z,1002.59
2019-01-05T15:47:45.051Z,1002.64
2019-01-05T15:48:52.117Z,1002.64
2019-01-05T15:51:07.760Z,1002.62
2019-01-05T15:52:14.465Z,1002.64
2019-01-05T15:53:21.583Z,1002.63
2019-01-05T15:54:28.912Z,1002.59
2019-01-05T15:55:36.920Z,1002.65
2019-01-05T15:56:42.456Z,1002.65
2019-01-05T15:57:49.417Z,1002.65